Ashford, CT

6:25 AM EDT on September 30, 2014 (GMT -0400)
Gurleyville Green | Change Station
CLOSE
Current Station
Personal Weather Station
Location: Storrs Mansfield, CT
Elevation: 354 ft
Nearby Weather Stations

Elev 354 ft 41.82 °N, 72.22 °W | Updated 3 seconds ago

Overcast
Overcast
57.0 °F
Feels Like 57.0 °F
N
0.0
Wind Variable Wind from WNW
Gusts 4.0 mph

Today
High -- | Low -- °F
--% Chance of Precip.
Yesterday
High -- | Low -- °F
Precip. -- in
6:44 AM 6:32 PM
Waxing Crescent, 35% visible
Pressure 29.99 in
Visibility 10.0 miles
Clouds Overcast 700 ft
Dew Point 56 °F
Humidity 95%
Rainfall 0.00 in
Snow Depth Not available.
UV 0 out of 12
Pollen 2.20 out of 12
Ozone Good
Flu Activity Not available.
METAR KIJD 300952Z AUTO 03005KT 10SM OVC007 14/13 A2999 RMK AO2 SLP156 T01440128

More Conditions Fewer Conditions

Pressure 29.99 in
Visibility 10.0 miles
Clouds Overcast 700 ft
Dew Point 56 °F
Humidity 95%
Rainfall 0.00 in
Snow Depth Not available.
UV 0 out of 12
Pollen 2.20 out of 12
Ozone Good
Flu Activity Not available.
METAR KIJD 300952Z AUTO 03005KT 10SM OVC007 14/13 A2999 RMK AO2 SLP156 T01440128

More Conditions Fewer Conditions

10-Day Weather Forecast

Almanac

Astronomy

Sep. 30, 2014 Rise Set
Actual Time 6:44 AM EDT 6:32 PM EDT
Civil Twilight 6:16 AM EDT 6:59 PM EDT
Nautical Twilight 5:44 AM EDT 7:32 PM EDT
Astronomical Twilight 5:11 AM EDT 8:04 PM EDT
Moon 12:54 PM EDT 10:55 PM EDT
Length of Visible Light 12h 43m
Length of Day
11h 47m
Tomorrow will be 2m 47s shorter.
Waxing Crescent, 35% of the Moon is Illuminated
Today
Waxing Crescent
Oct 1
First Quarter
Oct 8
Full
Oct 15
Last Quarter
Oct 23
New

Today's Extremes

State Highs State Lows

Community

WunderPhotos

Upload Photos

1,757,610 photos uploaded!

WunderBlogs® & News

Nearby

Air Quality

  Air Quality AQ Index Pollutant
Yesterday Good
OZONE
Current Good
OZONE
Tuesday Good
PM2.5
Tuesday Good
OZONE

Snow Depth

Station Depth Elevation
No new snow has been reported.

Earthquake Activity

City Distance Mag. Time & Date
No recent earthquake activity has been reported nearby.
Minimum magnitude displayed is 2.5.

Coastal Water Temperatures

Place Temperature
New London, CT 68.0 °F
Newport, RI 66.0 °F
Quonset Point, RI 66.9 °F
Conimicut Light, RI 68.0 °F
Providence, RI 66.9 °F

Nearby Weather Stations